sensor_id;sensor_type;location;lat;lon;timestamp;P1;durP1;ratioP1;P2;durP2;ratioP2
77563;SDS011;66703;48.076;9.220;2023-05-07T00:13:21;7.38;;;6.78;;
77563;SDS011;66703;48.076;9.220;2023-05-07T00:16:10;6.35;;;5.88;;
77563;SDS011;66703;48.076;9.220;2023-05-07T00:19:09;7.63;;;6.55;;
77563;SDS011;66703;48.076;9.220;2023-05-07T00:42:52;6.90;;;6.20;;
77563;SDS011;66703;48.076;9.220;2023-05-07T00:52:56;7.45;;;6.45;;
77563;SDS011;66703;48.076;9.220;2023-05-07T01:14:42;9.07;;;8.40;;
77563;SDS011;66703;48.076;9.220;2023-05-07T04:25:29;8.13;;;7.50;;
77563;SDS011;66703;48.076;9.220;2023-05-07T04:27:55;6.60;;;6.13;;
77563;SDS011;66703;48.076;9.220;2023-05-07T04:30:24;7.03;;;6.47;;
77563;SDS011;66703;48.076;9.220;2023-05-07T04:32:49;7.50;;;6.90;;
77563;SDS011;66703;48.076;9.220;2023-05-07T04:35:15;7.47;;;6.88;;
77563;SDS011;66703;48.076;9.220;2023-05-07T04:37:40;10.00;;;9.30;;
77563;SDS011;66703;48.076;9.220;2023-05-07T04:40:06;7.75;;;7.15;;
77563;SDS011;66703;48.076;9.220;2023-05-07T04:42:32;7.78;;;7.22;;
77563;SDS011;66703;48.076;9.220;2023-05-07T04:44:57;7.82;;;7.25;;
77563;SDS011;66703;48.076;9.220;2023-05-07T04:47:23;7.72;;;7.22;;
77563;SDS011;66703;48.076;9.220;2023-05-07T04:49:48;7.18;;;6.57;;
77563;SDS011;66703;48.076;9.220;2023-05-07T04:52:13;6.13;;;5.63;;
77563;SDS011;66703;48.076;9.220;2023-05-07T04:54:40;6.55;;;6.07;;
77563;SDS011;66703;48.076;9.220;2023-05-07T04:57:05;7.03;;;6.53;;
77563;SDS011;66703;48.076;9.220;2023-05-07T04:59:31;8.57;;;7.97;;
77563;SDS011;66703;48.076;9.220;2023-05-07T05:01:57;7.57;;;6.97;;
77563;SDS011;66703;48.076;9.220;2023-05-07T05:04:22;8.88;;;8.27;;
77563;SDS011;66703;48.076;9.220;2023-05-07T05:06:48;8.05;;;6.68;;
77563;SDS011;66703;48.076;9.220;2023-05-07T05:09:13;8.02;;;7.53;;
77563;SDS011;66703;48.076;9.220;2023-05-07T05:11:39;7.78;;;7.28;;
77563;SDS011;66703;48.076;9.220;2023-05-07T05:14:05;9.43;;;8.73;;
77563;SDS011;66703;48.076;9.220;2023-05-07T05:16:30;9.43;;;8.77;;
77563;SDS011;66703;48.076;9.220;2023-05-07T05:18:55;8.90;;;6.60;;
77563;SDS011;66703;48.076;9.220;2023-05-07T05:21:21;7.47;;;6.93;;
77563;SDS011;66703;48.076;9.220;2023-05-07T05:23:46;7.38;;;6.85;;
77563;SDS011;66703;48.076;9.220;2023-05-07T05:26:12;8.43;;;7.82;;
77563;SDS011;66703;48.076;9.220;2023-05-07T05:28:37;8.32;;;7.75;;
77563;SDS011;66703;48.076;9.220;2023-05-07T05:31:04;7.93;;;7.22;;
77563;SDS011;66703;48.076;9.220;2023-05-07T05:33:30;12.20;;;8.18;;
77563;SDS011;66703;48.076;9.220;2023-05-07T05:35:55;7.90;;;7.20;;
77563;SDS011;66703;48.076;9.220;2023-05-07T05:38:20;6.60;;;6.05;;
77563;SDS011;66703;48.076;9.220;2023-05-07T05:40:46;8.13;;;7.47;;
77563;SDS011;66703;48.076;9.220;2023-05-07T05:43:11;6.93;;;6.32;;
77563;SDS011;66703;48.076;9.220;2023-05-07T05:45:37;6.40;;;5.90;;
77563;SDS011;66703;48.076;9.220;2023-05-07T05:48:02;8.80;;;7.50;;
77563;SDS011;66703;48.076;9.220;2023-05-07T05:50:28;7.38;;;6.78;;
77563;SDS011;66703;48.076;9.220;2023-05-07T05:52:53;7.22;;;6.53;;
77563;SDS011;66703;48.076;9.220;2023-05-07T05:55:20;7.72;;;7.07;;
77563;SDS011;66703;48.076;9.220;2023-05-07T05:57:45;8.05;;;7.35;;
77563;SDS011;66703;48.076;9.220;2023-05-07T06:00:11;10.80;;;10.00;;
77563;SDS011;66703;48.076;9.220;2023-05-07T06:02:37;7.95;;;7.13;;
77563;SDS011;66703;48.076;9.220;2023-05-07T06:05:03;8.82;;;7.93;;
77563;SDS011;66703;48.076;9.220;2023-05-07T06:07:29;9.23;;;8.38;;
77563;SDS011;66703;48.076;9.220;2023-05-07T06:09:54;8.63;;;7.85;;
77563;SDS011;66703;48.076;9.220;2023-05-07T06:12:20;10.75;;;9.95;;
77563;SDS011;66703;48.076;9.220;2023-05-07T06:14:46;9.38;;;8.02;;
77563;SDS011;66703;48.076;9.220;2023-05-07T06:17:11;9.32;;;8.63;;
77563;SDS011;66703;48.076;9.220;2023-05-07T06:19:36;9.18;;;8.38;;
77563;SDS011;66703;48.076;9.220;2023-05-07T06:22:02;9.20;;;8.40;;
77563;SDS011;66703;48.076;9.220;2023-05-07T06:24:27;8.57;;;7.72;;
77563;SDS011;66703;48.076;9.220;2023-05-07T06:26:53;10.15;;;9.25;;
77563;SDS011;66703;48.076;9.220;2023-05-07T06:29:19;10.35;;;9.45;;
77563;SDS011;66703;48.076;9.220;2023-05-07T06:31:44;11.05;;;10.10;;
77563;SDS011;66703;48.076;9.220;2023-05-07T06:34:10;10.23;;;8.38;;
77563;SDS011;66703;48.076;9.220;2023-05-07T06:36:39;8.98;;;8.07;;
77563;SDS011;66703;48.076;9.220;2023-05-07T06:39:05;9.35;;;8.52;;
77563;SDS011;66703;48.076;9.220;2023-05-07T06:41:30;8.35;;;7.55;;
77563;SDS011;66703;48.076;9.220;2023-05-07T06:43:55;9.27;;;8.38;;
77563;SDS011;66703;48.076;9.220;2023-05-07T06:46:21;8.77;;;7.97;;
77563;SDS011;66703;48.076;9.220;2023-05-07T06:48:46;8.50;;;7.70;;
77563;SDS011;66703;48.076;9.220;2023-05-07T06:51:12;9.85;;;9.00;;
77563;SDS011;66703;48.076;9.220;2023-05-07T06:53:37;8.70;;;7.82;;
77563;SDS011;66703;48.076;9.220;2023-05-07T06:56:03;8.07;;;7.38;;
77563;SDS011;66703;48.076;9.220;2023-05-07T06:58:28;8.90;;;7.93;;
77563;SDS011;66703;48.076;9.220;2023-05-07T07:00:53;8.43;;;7.68;;
77563;SDS011;66703;48.076;9.220;2023-05-07T07:03:19;8.27;;;7.55;;
77563;SDS011;66703;48.076;9.220;2023-05-07T07:05:44;8.85;;;8.13;;
77563;SDS011;66703;48.076;9.220;2023-05-07T07:08:10;8.98;;;8.27;;
77563;SDS011;66703;48.076;9.220;2023-05-07T07:10:35;8.27;;;7.57;;
77563;SDS011;66703;48.076;9.220;2023-05-07T07:13:00;9.23;;;8.30;;
77563;SDS011;66703;48.076;9.220;2023-05-07T07:15:26;9.25;;;8.38;;
77563;SDS011;66703;48.076;9.220;2023-05-07T07:17:51;8.48;;;7.68;;
77563;SDS011;66703;48.076;9.220;2023-05-07T07:20:17;9.43;;;8.55;;
77563;SDS011;66703;48.076;9.220;2023-05-07T07:22:42;8.50;;;7.57;;
77563;SDS011;66703;48.076;9.220;2023-05-07T07:25:08;7.68;;;6.90;;
77563;SDS011;66703;48.076;9.220;2023-05-07T07:27:33;8.95;;;8.15;;
77563;SDS011;66703;48.076;9.220;2023-05-07T07:29:59;7.80;;;7.10;;
77563;SDS011;66703;48.076;9.220;2023-05-07T07:32:25;7.35;;;6.65;;
77563;SDS011;66703;48.076;9.220;2023-05-07T07:34:51;7.97;;;7.18;;
77563;SDS011;66703;48.076;9.220;2023-05-07T07:37:16;7.45;;;6.85;;
77563;SDS011;66703;48.076;9.220;2023-05-07T07:39:41;6.78;;;6.07;;
77563;SDS011;66703;48.076;9.220;2023-05-07T07:42:07;8.13;;;7.32;;
77563;SDS011;66703;48.076;9.220;2023-05-07T07:44:32;6.32;;;5.65;;
77563;SDS011;66703;48.076;9.220;2023-05-07T07:46:57;6.38;;;5.78;;
77563;SDS011;66703;48.076;9.220;2023-05-07T07:49:23;6.45;;;5.60;;
77563;SDS011;66703;48.076;9.220;2023-05-07T07:51:48;7.20;;;6.47;;
77563;SDS011;66703;48.076;9.220;2023-05-07T07:54:14;6.55;;;5.95;;
77563;SDS011;66703;48.076;9.220;2023-05-07T07:56:39;7.55;;;6.32;;
77563;SDS011;66703;48.076;9.220;2023-05-07T07:59:05;6.47;;;5.88;;
77563;SDS011;66703;48.076;9.220;2023-05-07T08:01:30;5.53;;;5.05;;
77563;SDS011;66703;48.076;9.220;2023-05-07T08:03:56;5.45;;;4.97;;
77563;SDS011;66703;48.076;9.220;2023-05-07T08:06:23;6.13;;;5.47;;
77563;SDS011;66703;48.076;9.220;2023-05-07T08:08:49;6.72;;;5.95;;
77563;SDS011;66703;48.076;9.220;2023-05-07T08:11:14;5.68;;;5.18;;
77563;SDS011;66703;48.076;9.220;2023-05-07T08:13:40;8.38;;;5.82;;
77563;SDS011;66703;48.076;9.220;2023-05-07T08:16:05;5.82;;;5.25;;
77563;SDS011;66703;48.076;9.220;2023-05-07T08:18:31;5.38;;;4.88;;
77563;SDS011;66703;48.076;9.220;2023-05-07T08:20:56;5.53;;;4.40;;
77563;SDS011;66703;48.076;9.220;2023-05-07T08:23:21;5.15;;;4.75;;
77563;SDS011;66703;48.076;9.220;2023-05-07T08:25:47;4.47;;;4.07;;
77563;SDS011;66703;48.076;9.220;2023-05-07T08:28:14;4.50;;;4.10;;
77563;SDS011;66703;48.076;9.220;2023-05-07T08:30:39;5.38;;;4.07;;
77563;SDS011;66703;48.076;9.220;2023-05-07T08:33:05;4.32;;;3.92;;
77563;SDS011;66703;48.076;9.220;2023-05-07T08:35:30;5.18;;;4.45;;
77563;SDS011;66703;48.076;9.220;2023-05-07T08:37:56;5.95;;;5.25;;
77563;SDS011;66703;48.076;9.220;2023-05-07T08:40:23;5.07;;;4.63;;
77563;SDS011;66703;48.076;9.220;2023-05-07T08:42:50;5.38;;;4.97;;
77563;SDS011;66703;48.076;9.220;2023-05-07T08:45:17;7.40;;;5.32;;
77563;SDS011;66703;48.076;9.220;2023-05-07T08:47:44;5.13;;;4.72;;
77563;SDS011;66703;48.076;9.220;2023-05-07T08:50:12;5.20;;;4.80;;
77563;SDS011;66703;48.076;9.220;2023-05-07T08:52:38;5.95;;;4.40;;
77563;SDS011;66703;48.076;9.220;2023-05-07T08:55:05;5.78;;;4.57;;
77563;SDS011;66703;48.076;9.220;2023-05-07T08:57:31;4.85;;;4.28;;
77563;SDS011;66703;48.076;9.220;2023-05-07T08:59:57;5.72;;;4.60;;
77563;SDS011;66703;48.076;9.220;2023-05-07T09:02:22;5.03;;;4.60;;
77563;SDS011;66703;48.076;9.220;2023-05-07T09:04:48;5.10;;;4.60;;
77563;SDS011;66703;48.076;9.220;2023-05-07T09:07:13;4.80;;;4.40;;
77563;SDS011;66703;48.076;9.220;2023-05-07T09:09:38;5.20;;;4.78;;
77563;SDS011;66703;48.076;9.220;2023-05-07T09:12:04;5.03;;;4.25;;
77563;SDS011;66703;48.076;9.220;2023-05-07T09:14:29;4.82;;;4.43;;
77563;SDS011;66703;48.076;9.220;2023-05-07T09:16:56;4.07;;;3.67;;
77563;SDS011;66703;48.076;9.220;2023-05-07T09:19:25;4.18;;;3.78;;
77563;SDS011;66703;48.076;9.220;2023-05-07T09:22:25;9.43;;;4.53;;
77563;SDS011;66703;48.076;9.220;2023-05-07T09:24:49;4.40;;;4.00;;
77563;SDS011;66703;48.076;9.220;2023-05-07T09:27:16;4.80;;;4.40;;
77563;SDS011;66703;48.076;9.220;2023-05-07T09:29:43;5.38;;;4.97;;
77563;SDS011;66703;48.076;9.220;2023-05-07T09:32:09;4.47;;;3.78;;
77563;SDS011;66703;48.076;9.220;2023-05-07T09:34:35;3.85;;;3.55;;
77563;SDS011;66703;48.076;9.220;2023-05-07T09:37:04;5.30;;;4.20;;
77563;SDS011;66703;48.076;9.220;2023-05-07T09:42:05;5.53;;;4.72;;
77563;SDS011;66703;48.076;9.220;2023-05-07T09:44:31;4.82;;;3.83;;
77563;SDS011;66703;48.076;9.220;2023-05-07T09:46:57;4.18;;;3.78;;
77563;SDS011;66703;48.076;9.220;2023-05-07T09:49:25;4.90;;;4.50;;
77563;SDS011;66703;48.076;9.220;2023-05-07T09:51:55;3.97;;;3.67;;
77563;SDS011;66703;48.076;9.220;2023-05-07T09:54:21;4.72;;;4.32;;
77563;SDS011;66703;48.076;9.220;2023-05-07T09:56:50;5.03;;;3.90;;
77563;SDS011;66703;48.076;9.220;2023-05-07T09:59:17;4.35;;;4.00;;
77563;SDS011;66703;48.076;9.220;2023-05-07T10:01:42;4.30;;;3.90;;
77563;SDS011;66703;48.076;9.220;2023-05-07T10:04:09;3.35;;;3.05;;
77563;SDS011;66703;48.076;9.220;2023-05-07T10:06:35;3.63;;;3.30;;
77563;SDS011;66703;48.076;9.220;2023-05-07T10:09:01;4.10;;;2.88;;
77563;SDS011;66703;48.076;9.220;2023-05-07T10:11:27;4.28;;;3.38;;
77563;SDS011;66703;48.076;9.220;2023-05-07T10:13:53;3.83;;;3.50;;
77563;SDS011;66703;48.076;9.220;2023-05-07T10:16:18;4.00;;;3.33;;
77563;SDS011;66703;48.076;9.220;2023-05-07T10:18:44;3.47;;;3.17;;
77563;SDS011;66703;48.076;9.220;2023-05-07T10:21:18;3.97;;;3.60;;
77563;SDS011;66703;48.076;9.220;2023-05-07T10:23:45;4.00;;;3.58;;
77563;SDS011;66703;48.076;9.220;2023-05-07T10:26:11;6.05;;;3.95;;
77563;SDS011;66703;48.076;9.220;2023-05-07T10:28:38;4.53;;;4.13;;
77563;SDS011;66703;48.076;9.220;2023-05-07T10:31:08;6.68;;;4.45;;
77563;SDS011;66703;48.076;9.220;2023-05-07T10:33:45;4.45;;;3.92;;
77563;SDS011;66703;48.076;9.220;2023-05-07T10:36:12;4.40;;;4.00;;
77563;SDS011;66703;48.076;9.220;2023-05-07T10:38:37;4.95;;;4.10;;
77563;SDS011;66703;48.076;9.220;2023-05-07T10:41:05;4.25;;;3.88;;
77563;SDS011;66703;48.076;9.220;2023-05-07T10:43:40;4.20;;;3.80;;
77563;SDS011;66703;48.076;9.220;2023-05-07T10:46:20;5.63;;;4.22;;
77563;SDS011;66703;48.076;9.220;2023-05-07T10:51:25;4.40;;;4.10;;
77563;SDS011;66703;48.076;9.220;2023-05-07T10:54:25;5.15;;;4.05;;
77563;SDS011;66703;48.076;9.220;2023-05-07T10:56:43;5.40;;;4.90;;
77563;SDS011;66703;48.076;9.220;2023-05-07T11:01:56;5.72;;;4.10;;
77563;SDS011;66703;48.076;9.220;2023-05-07T11:15:01;5.30;;;4.80;;
77563;SDS011;66703;48.076;9.220;2023-05-07T11:17:28;5.18;;;4.13;;
77563;SDS011;66703;48.076;9.220;2023-05-07T11:19:57;4.80;;;4.40;;
77563;SDS011;66703;48.076;9.220;2023-05-07T11:24:59;4.28;;;3.88;;
77563;SDS011;66703;48.076;9.220;2023-05-07T11:27:25;5.30;;;3.63;;
77563;SDS011;66703;48.076;9.220;2023-05-07T11:29:51;4.68;;;4.20;;
77563;SDS011;66703;48.076;9.220;2023-05-07T11:32:22;4.40;;;3.90;;
77563;SDS011;66703;48.076;9.220;2023-05-07T11:34:51;5.28;;;4.07;;
77563;SDS011;66703;48.076;9.220;2023-05-07T11:37:17;4.72;;;3.72;;
77563;SDS011;66703;48.076;9.220;2023-05-07T11:39:44;5.85;;;5.28;;
77563;SDS011;66703;48.076;9.220;2023-05-07T11:42:28;5.72;;;4.82;;
77563;SDS011;66703;48.076;9.220;2023-05-07T11:44:54;4.80;;;4.30;;
77563;SDS011;66703;48.076;9.220;2023-05-07T11:47:19;4.25;;;3.85;;
77563;SDS011;66703;48.076;9.220;2023-05-07T11:49:49;5.78;;;4.00;;
77563;SDS011;66703;48.076;9.220;2023-05-07T11:52:15;4.20;;;3.80;;
77563;SDS011;66703;48.076;9.220;2023-05-07T11:54:48;4.55;;;4.15;;
77563;SDS011;66703;48.076;9.220;2023-05-07T11:57:14;4.90;;;4.07;;
77563;SDS011;66703;48.076;9.220;2023-05-07T11:59:40;26.35;;;4.47;;
77563;SDS011;66703;48.076;9.220;2023-05-07T12:02:06;3.78;;;3.10;;
77563;SDS011;66703;48.076;9.220;2023-05-07T12:04:32;3.63;;;3.30;;
77563;SDS011;66703;48.076;9.220;2023-05-07T12:06:57;4.68;;;4.20;;
77563;SDS011;66703;48.076;9.220;2023-05-07T12:09:23;4.72;;;4.13;;
77563;SDS011;66703;48.076;9.220;2023-05-07T12:11:48;4.47;;;3.90;;
77563;SDS011;66703;48.076;9.220;2023-05-07T12:14:14;4.10;;;3.70;;
77563;SDS011;66703;48.076;9.220;2023-05-07T12:16:41;4.35;;;3.33;;
77563;SDS011;66703;48.076;9.220;2023-05-07T12:19:06;4.45;;;4.05;;
77563;SDS011;66703;48.076;9.220;2023-05-07T12:21:34;3.90;;;3.47;;
77563;SDS011;66703;48.076;9.220;2023-05-07T12:23:59;9.95;;;4.53;;
77563;SDS011;66703;48.076;9.220;2023-05-07T12:26:25;4.28;;;2.90;;
77563;SDS011;66703;48.076;9.220;2023-05-07T12:28:50;3.72;;;3.25;;
77563;SDS011;66703;48.076;9.220;2023-05-07T12:31:16;4.22;;;3.55;;
77563;SDS011;66703;48.076;9.220;2023-05-07T12:33:41;4.88;;;2.92;;
77563;SDS011;66703;48.076;9.220;2023-05-07T12:36:07;4.43;;;3.20;;
77563;SDS011;66703;48.076;9.220;2023-05-07T12:38:37;3.92;;;3.08;;
77563;SDS011;66703;48.076;9.220;2023-05-07T12:41:03;4.07;;;3.30;;
77563;SDS011;66703;48.076;9.220;2023-05-07T12:43:29;4.55;;;3.17;;
77563;SDS011;66703;48.076;9.220;2023-05-07T12:45:59;3.45;;;3.00;;
77563;SDS011;66703;48.076;9.220;2023-05-07T12:48:26;3.10;;;2.83;;
77563;SDS011;66703;48.076;9.220;2023-05-07T12:50:59;5.50;;;3.70;;
77563;SDS011;66703;48.076;9.220;2023-05-07T12:53:25;3.28;;;2.97;;
77563;SDS011;66703;48.076;9.220;2023-05-07T12:55:52;4.18;;;3.00;;
77563;SDS011;66703;48.076;9.220;2023-05-07T13:00:52;4.22;;;3.70;;
77563;SDS011;66703;48.076;9.220;2023-05-07T13:03:26;4.65;;;3.70;;
77563;SDS011;66703;48.076;9.220;2023-05-07T13:06:02;4.78;;;4.28;;
77563;SDS011;66703;48.076;9.220;2023-05-07T13:08:33;5.00;;;4.35;;
77563;SDS011;66703;48.076;9.220;2023-05-07T13:11:02;4.00;;;3.70;;
77563;SDS011;66703;48.076;9.220;2023-05-07T13:13:29;4.28;;;3.90;;
77563;SDS011;66703;48.076;9.220;2023-05-07T13:15:58;4.80;;;3.63;;
77563;SDS011;66703;48.076;9.220;2023-05-07T13:18:25;4.45;;;4.05;;
77563;SDS011;66703;48.076;9.220;2023-05-07T13:20:51;5.05;;;4.00;;
77563;SDS011;66703;48.076;9.220;2023-05-07T13:23:17;6.53;;;4.03;;
77563;SDS011;66703;48.076;9.220;2023-05-07T13:25:43;4.45;;;4.00;;
77563;SDS011;66703;48.076;9.220;2023-05-07T13:28:08;6.35;;;4.40;;
77563;SDS011;66703;48.076;9.220;2023-05-07T13:30:34;6.03;;;4.13;;
77563;SDS011;66703;48.076;9.220;2023-05-07T13:32:59;4.53;;;4.22;;
77563;SDS011;66703;48.076;9.220;2023-05-07T13:35:26;5.15;;;4.05;;
77563;SDS011;66703;48.076;9.220;2023-05-07T13:37:52;3.17;;;2.90;;
77563;SDS011;66703;48.076;9.220;2023-05-07T13:40:18;4.40;;;4.00;;
77563;SDS011;66703;48.076;9.220;2023-05-07T13:42:44;3.72;;;3.42;;
77563;SDS011;66703;48.076;9.220;2023-05-07T13:45:10;4.45;;;4.05;;
77563;SDS011;66703;48.076;9.220;2023-05-07T13:47:35;5.75;;;3.80;;
77563;SDS011;66703;48.076;9.220;2023-05-07T13:50:01;3.78;;;3.03;;
77563;SDS011;66703;48.076;9.220;2023-05-07T13:52:26;4.72;;;3.72;;
77563;SDS011;66703;48.076;9.220;2023-05-07T13:54:51;7.60;;;4.10;;
77563;SDS011;66703;48.076;9.220;2023-05-07T13:57:17;8.57;;;4.00;;
77563;SDS011;66703;48.076;9.220;2023-05-07T13:59:43;7.25;;;4.07;;
77563;SDS011;66703;48.076;9.220;2023-05-07T14:02:08;34.20;;;24.67;;
77563;SDS011;66703;48.076;9.220;2023-05-07T14:04:34;8.95;;;6.00;;
77563;SDS011;66703;48.076;9.220;2023-05-07T14:06:59;5.00;;;4.50;;
77563;SDS011;66703;48.076;9.220;2023-05-07T14:09:25;7.18;;;4.78;;
77563;SDS011;66703;48.076;9.220;2023-05-07T14:11:52;5.10;;;4.57;;
77563;SDS011;66703;48.076;9.220;2023-05-07T14:14:18;4.47;;;4.13;;
77563;SDS011;66703;48.076;9.220;2023-05-07T14:16:44;5.30;;;4.90;;
77563;SDS011;66703;48.076;9.220;2023-05-07T14:19:10;5.88;;;3.20;;
77563;SDS011;66703;48.076;9.220;2023-05-07T14:21:35;7.80;;;4.82;;
77563;SDS011;66703;48.076;9.220;2023-05-07T14:24:01;5.20;;;4.32;;
77563;SDS011;66703;48.076;9.220;2023-05-07T14:26:26;4.85;;;4.45;;
77563;SDS011;66703;48.076;9.220;2023-05-07T14:28:52;4.22;;;3.17;;
77563;SDS011;66703;48.076;9.220;2023-05-07T14:31:19;4.00;;;3.70;;
77563;SDS011;66703;48.076;9.220;2023-05-07T14:33:45;6.57;;;5.15;;
77563;SDS011;66703;48.076;9.220;2023-05-07T14:36:11;4.78;;;4.07;;
77563;SDS011;66703;48.076;9.220;2023-05-07T14:38:36;7.45;;;5.10;;
77563;SDS011;66703;48.076;9.220;2023-05-07T14:41:01;12.40;;;10.95;;
77563;SDS011;66703;48.076;9.220;2023-05-07T14:43:27;18.67;;;13.65;;
77563;SDS011;66703;48.076;9.220;2023-05-07T14:45:52;7.88;;;7.00;;
77563;SDS011;66703;48.076;9.220;2023-05-07T14:48:17;4.75;;;3.25;;
77563;SDS011;66703;48.076;9.220;2023-05-07T14:50:43;3.78;;;3.10;;
77563;SDS011;66703;48.076;9.220;2023-05-07T14:53:08;5.18;;;3.20;;
77563;SDS011;66703;48.076;9.220;2023-05-07T14:55:34;4.00;;;2.90;;
77563;SDS011;66703;48.076;9.220;2023-05-07T14:57:59;3.40;;;3.05;;
77563;SDS011;66703;48.076;9.220;2023-05-07T15:00:25;2.80;;;2.55;;
77563;SDS011;66703;48.076;9.220;2023-05-07T15:02:52;7.85;;;3.75;;
77563;SDS011;66703;48.076;9.220;2023-05-07T15:05:17;3.75;;;3.10;;
77563;SDS011;66703;48.076;9.220;2023-05-07T15:07:44;3.97;;;2.55;;
77563;SDS011;66703;48.076;9.220;2023-05-07T15:10:09;3.30;;;3.00;;
77563;SDS011;66703;48.076;9.220;2023-05-07T15:12:35;3.05;;;2.85;;
77563;SDS011;66703;48.076;9.220;2023-05-07T15:15:00;4.32;;;2.80;;
77563;SDS011;66703;48.076;9.220;2023-05-07T15:17:26;2.80;;;2.58;;
77563;SDS011;66703;48.076;9.220;2023-05-07T15:19:51;3.70;;;3.40;;
77563;SDS011;66703;48.076;9.220;2023-05-07T15:22:17;3.67;;;2.97;;
77563;SDS011;66703;48.076;9.220;2023-05-07T15:24:42;3.83;;;2.85;;
77563;SDS011;66703;48.076;9.220;2023-05-07T15:27:09;3.67;;;2.42;;
77563;SDS011;66703;48.076;9.220;2023-05-07T15:29:35;2.85;;;2.65;;
77563;SDS011;66703;48.076;9.220;2023-05-07T15:32:00;2.50;;;2.30;;
77563;SDS011;66703;48.076;9.220;2023-05-07T15:34:26;2.92;;;2.72;;
77563;SDS011;66703;48.076;9.220;2023-05-07T15:36:51;3.58;;;2.97;;
77563;SDS011;66703;48.076;9.220;2023-05-07T15:39:17;4.10;;;3.80;;
77563;SDS011;66703;48.076;9.220;2023-05-07T15:41:42;3.38;;;2.60;;
77563;SDS011;66703;48.076;9.220;2023-05-07T15:44:07;3.72;;;3.42;;
77563;SDS011;66703;48.076;9.220;2023-05-07T15:46:33;3.38;;;2.95;;
77563;SDS011;66703;48.076;9.220;2023-05-07T15:48:59;3.20;;;2.72;;
77563;SDS011;66703;48.076;9.220;2023-05-07T15:51:27;3.63;;;2.88;;
77563;SDS011;66703;48.076;9.220;2023-05-07T15:53:53;2.92;;;2.53;;
77563;SDS011;66703;48.076;9.220;2023-05-07T15:56:18;4.78;;;2.80;;
77563;SDS011;66703;48.076;9.220;2023-05-07T15:58:43;3.30;;;2.92;;
77563;SDS011;66703;48.076;9.220;2023-05-07T16:01:10;2.63;;;2.40;;
77563;SDS011;66703;48.076;9.220;2023-05-07T16:03:35;4.38;;;3.97;;
77563;SDS011;66703;48.076;9.220;2023-05-07T16:06:05;3.20;;;2.72;;
77563;SDS011;66703;48.076;9.220;2023-05-07T16:08:31;4.30;;;2.95;;
77563;SDS011;66703;48.076;9.220;2023-05-07T16:10:58;3.83;;;3.22;;
77563;SDS011;66703;48.076;9.220;2023-05-07T16:13:33;3.03;;;2.65;;
77563;SDS011;66703;48.076;9.220;2023-05-07T16:16:03;3.70;;;3.20;;
77563;SDS011;66703;48.076;9.220;2023-05-07T16:18:30;3.05;;;2.53;;
77563;SDS011;66703;48.076;9.220;2023-05-07T16:21:01;3.47;;;3.17;;
77563;SDS011;66703;48.076;9.220;2023-05-07T16:23:33;3.88;;;3.10;;
77563;SDS011;66703;48.076;9.220;2023-05-07T16:25:59;4.70;;;3.42;;
77563;SDS011;66703;48.076;9.220;2023-05-07T16:28:31;3.60;;;3.30;;
77563;SDS011;66703;48.076;9.220;2023-05-07T16:31:01;4.85;;;3.38;;
77563;SDS011;66703;48.076;9.220;2023-05-07T16:33:35;3.85;;;3.30;;
77563;SDS011;66703;48.076;9.220;2023-05-07T16:36:01;3.42;;;3.13;;
77563;SDS011;66703;48.076;9.220;2023-05-07T16:38:34;4.63;;;4.20;;
77563;SDS011;66703;48.076;9.220;2023-05-07T16:41:06;5.18;;;3.65;;
77563;SDS011;66703;48.076;9.220;2023-05-07T16:43:34;4.55;;;4.10;;
77563;SDS011;66703;48.076;9.220;2023-05-07T16:46:04;3.70;;;3.15;;
77563;SDS011;66703;48.076;9.220;2023-05-07T16:48:35;7.43;;;4.70;;
77563;SDS011;66703;48.076;9.220;2023-05-07T16:51:04;5.50;;;4.10;;
77563;SDS011;66703;48.076;9.220;2023-05-07T16:53:41;4.60;;;3.95;;
77563;SDS011;66703;48.076;9.220;2023-05-07T16:56:13;30.77;;;10.93;;
77563;SDS011;66703;48.076;9.220;2023-05-07T16:58:45;6.20;;;4.85;;
77563;SDS011;66703;48.076;9.220;2023-05-07T17:01:11;7.00;;;6.30;;
77563;SDS011;66703;48.076;9.220;2023-05-07T17:03:57;5.75;;;5.03;;
77563;SDS011;66703;48.076;9.220;2023-05-07T17:06:34;4.90;;;4.50;;
77563;SDS011;66703;48.076;9.220;2023-05-07T17:09:02;4.53;;;4.13;;
77563;SDS011;66703;48.076;9.220;2023-05-07T17:11:28;3.40;;;3.10;;
77563;SDS011;66703;48.076;9.220;2023-05-07T17:14:03;5.78;;;4.72;;
77563;SDS011;66703;48.076;9.220;2023-05-07T17:16:32;3.88;;;3.58;;
77563;SDS011;66703;48.076;9.220;2023-05-07T17:19:02;3.88;;;3.58;;
77563;SDS011;66703;48.076;9.220;2023-05-07T17:21:31;3.22;;;2.90;;
77563;SDS011;66703;48.076;9.220;2023-05-07T17:24:00;3.90;;;3.47;;
77563;SDS011;66703;48.076;9.220;2023-05-07T17:26:34;4.40;;;3.97;;
77563;SDS011;66703;48.076;9.220;2023-05-07T17:29:06;4.35;;;3.88;;
77563;SDS011;66703;48.076;9.220;2023-05-07T17:31:35;5.43;;;4.80;;
77563;SDS011;66703;48.076;9.220;2023-05-07T17:34:04;6.28;;;5.03;;
77563;SDS011;66703;48.076;9.220;2023-05-07T17:36:35;4.72;;;4.32;;
77563;SDS011;66703;48.076;9.220;2023-05-07T17:39:10;4.45;;;4.05;;
77563;SDS011;66703;48.076;9.220;2023-05-07T17:41:44;4.03;;;3.60;;
77563;SDS011;66703;48.076;9.220;2023-05-07T17:44:13;3.50;;;3.20;;
77563;SDS011;66703;48.076;9.220;2023-05-07T17:46:44;4.38;;;3.97;;
77563;SDS011;66703;48.076;9.220;2023-05-07T17:49:13;4.00;;;3.70;;
77563;SDS011;66703;48.076;9.220;2023-05-07T17:51:46;4.78;;;4.38;;
77563;SDS011;66703;48.076;9.220;2023-05-07T17:54:14;5.05;;;4.57;;
77563;SDS011;66703;48.076;9.220;2023-05-07T17:56:41;5.47;;;4.97;;
77563;SDS011;66703;48.076;9.220;2023-05-07T17:59:22;4.30;;;3.90;;
77563;SDS011;66703;48.076;9.220;2023-05-07T18:01:53;5.43;;;4.30;;
77563;SDS011;66703;48.076;9.220;2023-05-07T18:04:22;3.80;;;3.50;;
77563;SDS011;66703;48.076;9.220;2023-05-07T18:09:21;4.07;;;3.70;;
77563;SDS011;66703;48.076;9.220;2023-05-07T18:11:49;5.38;;;4.65;;
77563;SDS011;66703;48.076;9.220;2023-05-07T18:14:22;4.28;;;3.88;;
77563;SDS011;66703;48.076;9.220;2023-05-07T18:16:51;4.10;;;3.70;;
77563;SDS011;66703;48.076;9.220;2023-05-07T18:19:20;5.03;;;4.03;;
77563;SDS011;66703;48.076;9.220;2023-05-07T18:21:46;4.57;;;4.18;;
77563;SDS011;66703;48.076;9.220;2023-05-07T18:24:17;5.05;;;4.65;;
77563;SDS011;66703;48.076;9.220;2023-05-07T18:26:44;4.53;;;4.10;;
77563;SDS011;66703;48.076;9.220;2023-05-07T18:29:09;5.30;;;4.35;;
77563;SDS011;66703;48.076;9.220;2023-05-07T18:31:35;6.15;;;5.60;;
77563;SDS011;66703;48.076;9.220;2023-05-07T18:34:00;5.05;;;4.05;;
77563;SDS011;66703;48.076;9.220;2023-05-07T18:36:26;5.03;;;4.60;;
77563;SDS011;66703;48.076;9.220;2023-05-07T18:38:52;5.03;;;4.60;;
77563;SDS011;66703;48.076;9.220;2023-05-07T18:41:18;5.75;;;5.05;;
77563;SDS011;66703;48.076;9.220;2023-05-07T18:43:45;5.32;;;4.82;;
77563;SDS011;66703;48.076;9.220;2023-05-07T18:46:10;4.88;;;4.47;;
77563;SDS011;66703;48.076;9.220;2023-05-07T18:48:35;5.53;;;5.13;;
77563;SDS011;66703;48.076;9.220;2023-05-07T18:51:02;5.32;;;4.93;;
77563;SDS011;66703;48.076;9.220;2023-05-07T18:53:27;5.47;;;4.97;;
77563;SDS011;66703;48.076;9.220;2023-05-07T18:55:53;5.82;;;5.32;;
77563;SDS011;66703;48.076;9.220;2023-05-07T18:58:18;4.80;;;4.40;;
77563;SDS011;66703;48.076;9.220;2023-05-07T19:00:45;4.75;;;4.25;;
77563;SDS011;66703;48.076;9.220;2023-05-07T19:03:11;4.93;;;4.53;;
77563;SDS011;66703;48.076;9.220;2023-05-07T19:05:39;5.07;;;4.68;;
77563;SDS011;66703;48.076;9.220;2023-05-07T19:08:05;5.97;;;5.38;;
77563;SDS011;66703;48.076;9.220;2023-05-07T19:10:31;5.80;;;5.30;;
77563;SDS011;66703;48.076;9.220;2023-05-07T19:12:56;6.13;;;5.63;;
77563;SDS011;66703;48.076;9.220;2023-05-07T19:15:22;5.75;;;5.25;;
77563;SDS011;66703;48.076;9.220;2023-05-07T19:17:48;5.93;;;5.43;;
77563;SDS011;66703;48.076;9.220;2023-05-07T19:20:13;5.82;;;5.43;;
77563;SDS011;66703;48.076;9.220;2023-05-07T19:22:39;5.63;;;5.13;;